Whiteman Air Force Base
KSZL : rendu visible

Aérodrome :











RETROUVEZ-NOUS SUR...

 
LOGIN :

S'inscrire | Disclaimer

   EN    FR    IT 

 









Légende :    VFR   VFR Marginal   IFR   IFR Intensif   IFR Très Intensif
Visi : 
Plafond : 
>= 8 km
>= 3000ft
5 à 8 km
1000 à 3000 ft
1500m à 5 km
500 à 1000 ft
800 à 1500m
200 à 500 ft
< 800m
< 200 ft
Symboles :   Orages  Brouillard  Fortes neiges  Fortes précipitations  Vent > 20 kt







- Altitude de l'aérodrome : 870 ft


KSZL - Whiteman Air Force Base

DERNIER METAR :
  • 222156Z 23014KT 10SM FEW030 BKN055 23/17 A2993 RMK AO2A SLP133 T02270167 $

METARs EXPIRÉS :
  • 222056Z 23015KT 10SM OVC030 22/16 A2993 RMK AO2A SLP133 T02220160 58002 $
  • 221956Z 25012KT 10SM BKN031 OVC050 22/16 A2993 RMK AO2A SLP133 T02240157 $

TAF TAF KSZL
Valide du 22 à 19h jusqu'au 24 à 01h UTC


221900Z 2219/2401 22012G18KT 9999 OVC035 QNH2992INS
BECMG 2223/2224 31009KT 9999 BKN030 OVC050 QNH2996INS
BECMG 2310/2311 01009KT 9999 BKN015 OVC040 QNH3005INS
BECMG 2318/2319 02006KT 9999 BKN025 BKN150 QNH3001INS TX24/2221Z TN10/2312Z
FIR KZKC / Amérique du Nord



MET'MAP, la Météo Aéronautique d'un coup d'oeil ! - Copyright ORBIFLY Décembre 2007 - Disclaimer

ORBIFLY MET'MAP TEAM :

Programmation & Développement : Alexandra Zaïnal
Conception & Développement : Baudouin d'Aumeries
Co-Programmation & Développement : Marc-Olivier Méhu
Soutien technique & logistique : Manuel Goepfert

Contact : metmap@orbifly.com




SOURCES & CREDITS :

   NOAA       Earth
Advisory